sensor_id;sensor_type;location;lat;lon;timestamp;temperature;humidity
52725;DHT22;38621;52.830;6.914;2022-07-17T00:02:15;10.00;99.90
52725;DHT22;38621;52.830;6.914;2022-07-17T00:04:40;9.90;99.90
52725;DHT22;38621;52.830;6.914;2022-07-17T00:07:06;9.90;99.90
52725;DHT22;38621;52.830;6.914;2022-07-17T00:09:32;9.80;99.90
52725;DHT22;38621;52.830;6.914;2022-07-17T00:11:57;9.80;99.90
52725;DHT22;38621;52.830;6.914;2022-07-17T00:14:23;9.80;99.90
52725;DHT22;38621;52.830;6.914;2022-07-17T00:16:49;9.70;99.90
52725;DHT22;38621;52.830;6.914;2022-07-17T00:19:15;9.70;99.90
52725;DHT22;38621;52.830;6.914;2022-07-17T00:21:41;9.60;99.90
52725;DHT22;38621;52.830;6.914;2022-07-17T00:24:07;9.60;99.90
52725;DHT22;38621;52.830;6.914;2022-07-17T00:26:34;9.60;99.90
52725;DHT22;38621;52.830;6.914;2022-07-17T00:29:01;9.50;99.90
52725;DHT22;38621;52.830;6.914;2022-07-17T00:31:27;9.50;99.90
52725;DHT22;38621;52.830;6.914;2022-07-17T00:33:52;9.40;99.90
52725;DHT22;38621;52.830;6.914;2022-07-17T00:36:18;9.30;99.90
52725;DHT22;38621;52.830;6.914;2022-07-17T00:38:44;9.30;99.90
52725;DHT22;38621;52.830;6.914;2022-07-17T00:41:09;9.20;99.90
52725;DHT22;38621;52.830;6.914;2022-07-17T00:43:35;9.20;99.90
52725;DHT22;38621;52.830;6.914;2022-07-17T00:46:02;9.00;99.90
52725;DHT22;38621;52.830;6.914;2022-07-17T00:48:28;9.00;99.90
52725;DHT22;38621;52.830;6.914;2022-07-17T00:50:55;8.80;99.90
52725;DHT22;38621;52.830;6.914;2022-07-17T00:53:21;8.80;99.90
52725;DHT22;38621;52.830;6.914;2022-07-17T00:55:47;8.70;99.90
52725;DHT22;38621;52.830;6.914;2022-07-17T00:58:19;8.70;99.90
52725;DHT22;38621;52.830;6.914;2022-07-17T01:00:45;8.60;99.90
52725;DHT22;38621;52.830;6.914;2022-07-17T01:03:11;8.60;99.90
52725;DHT22;38621;52.830;6.914;2022-07-17T01:05:37;8.70;99.90
52725;DHT22;38621;52.830;6.914;2022-07-17T01:08:03;8.70;99.90
52725;DHT22;38621;52.830;6.914;2022-07-17T01:10:29;8.70;99.90
52725;DHT22;38621;52.830;6.914;2022-07-17T01:12:54;8.60;99.90
52725;DHT22;38621;52.830;6.914;2022-07-17T01:15:20;8.60;99.90
52725;DHT22;38621;52.830;6.914;2022-07-17T01:17:46;8.60;99.90
52725;DHT22;38621;52.830;6.914;2022-07-17T01:20:13;8.60;99.90
52725;DHT22;38621;52.830;6.914;2022-07-17T01:22:48;8.60;99.90
52725;DHT22;38621;52.830;6.914;2022-07-17T01:25:15;8.60;99.90
52725;DHT22;38621;52.830;6.914;2022-07-17T01:27:41;8.60;99.90
52725;DHT22;38621;52.830;6.914;2022-07-17T01:30:08;8.60;99.90
52725;DHT22;38621;52.830;6.914;2022-07-17T01:32:35;8.60;99.90
52725;DHT22;38621;52.830;6.914;2022-07-17T01:35:02;8.60;99.90
52725;DHT22;38621;52.830;6.914;2022-07-17T01:37:29;8.60;99.90
52725;DHT22;38621;52.830;6.914;2022-07-17T01:39:55;8.50;99.90
52725;DHT22;38621;52.830;6.914;2022-07-17T01:42:22;8.50;99.90
52725;DHT22;38621;52.830;6.914;2022-07-17T01:44:48;8.40;99.90
52725;DHT22;38621;52.830;6.914;2022-07-17T01:47:14;8.40;99.90
52725;DHT22;38621;52.830;6.914;2022-07-17T01:49:45;8.40;99.90
52725;DHT22;38621;52.830;6.914;2022-07-17T01:52:11;8.40;99.90
52725;DHT22;38621;52.830;6.914;2022-07-17T01:54:37;8.60;99.90
52725;DHT22;38621;52.830;6.914;2022-07-17T01:57:03;8.40;99.90
52725;DHT22;38621;52.830;6.914;2022-07-17T01:59:28;8.40;99.90
52725;DHT22;38621;52.830;6.914;2022-07-17T02:01:54;8.40;99.90
52725;DHT22;38621;52.830;6.914;2022-07-17T02:04:20;8.40;99.90
52725;DHT22;38621;52.830;6.914;2022-07-17T02:06:45;8.40;99.90
52725;DHT22;38621;52.830;6.914;2022-07-17T02:09:11;8.50;99.90
52725;DHT22;38621;52.830;6.914;2022-07-17T02:11:37;8.40;99.90
52725;DHT22;38621;52.830;6.914;2022-07-17T02:14:02;8.40;99.90
52725;DHT22;38621;52.830;6.914;2022-07-17T02:16:28;8.40;99.90
52725;DHT22;38621;52.830;6.914;2022-07-17T02:18:54;8.40;99.90
52725;DHT22;38621;52.830;6.914;2022-07-17T02:21:20;8.40;99.90
52725;DHT22;38621;52.830;6.914;2022-07-17T02:23:45;8.30;99.90
52725;DHT22;38621;52.830;6.914;2022-07-17T02:26:11;8.20;99.90
52725;DHT22;38621;52.830;6.914;2022-07-17T02:28:37;8.30;99.90
52725;DHT22;38621;52.830;6.914;2022-07-17T02:31:02;8.20;99.90
52725;DHT22;38621;52.830;6.914;2022-07-17T02:33:28;8.30;99.90
52725;DHT22;38621;52.830;6.914;2022-07-17T02:35:54;8.30;99.90
52725;DHT22;38621;52.830;6.914;2022-07-17T02:38:19;8.30;99.90
52725;DHT22;38621;52.830;6.914;2022-07-17T02:40:45;8.40;99.90
52725;DHT22;38621;52.830;6.914;2022-07-17T02:43:11;8.40;99.90
52725;DHT22;38621;52.830;6.914;2022-07-17T02:45:36;8.50;99.90
52725;DHT22;38621;52.830;6.914;2022-07-17T02:48:02;8.40;99.90
52725;DHT22;38621;52.830;6.914;2022-07-17T02:50:28;8.30;99.90
52725;DHT22;38621;52.830;6.914;2022-07-17T02:52:54;8.20;99.90
52725;DHT22;38621;52.830;6.914;2022-07-17T02:55:19;8.20;99.90
52725;DHT22;38621;52.830;6.914;2022-07-17T02:57:45;8.10;99.90
52725;DHT22;38621;52.830;6.914;2022-07-17T03:00:15;8.00;99.90
52725;DHT22;38621;52.830;6.914;2022-07-17T03:02:43;8.00;99.90
52725;DHT22;38621;52.830;6.914;2022-07-17T03:05:09;8.00;99.90
52725;DHT22;38621;52.830;6.914;2022-07-17T03:07:35;8.10;99.90
52725;DHT22;38621;52.830;6.914;2022-07-17T03:10:01;8.00;99.90
52725;DHT22;38621;52.830;6.914;2022-07-17T03:12:26;7.80;99.90
52725;DHT22;38621;52.830;6.914;2022-07-17T03:14:53;7.70;99.90
52725;DHT22;38621;52.830;6.914;2022-07-17T03:17:18;7.70;99.90
52725;DHT22;38621;52.830;6.914;2022-07-17T03:19:44;7.80;99.90
52725;DHT22;38621;52.830;6.914;2022-07-17T03:22:10;7.80;99.90
52725;DHT22;38621;52.830;6.914;2022-07-17T03:24:35;7.90;99.90
52725;DHT22;38621;52.830;6.914;2022-07-17T03:27:01;7.90;99.90
52725;DHT22;38621;52.830;6.914;2022-07-17T03:29:27;7.90;99.90
52725;DHT22;38621;52.830;6.914;2022-07-17T03:31:53;7.90;99.90
52725;DHT22;38621;52.830;6.914;2022-07-17T03:34:18;8.00;99.90
52725;DHT22;38621;52.830;6.914;2022-07-17T03:36:44;8.00;99.90
52725;DHT22;38621;52.830;6.914;2022-07-17T03:39:10;7.90;99.90
52725;DHT22;38621;52.830;6.914;2022-07-17T03:41:36;7.90;99.90
52725;DHT22;38621;52.830;6.914;2022-07-17T03:44:01;7.90;99.90
52725;DHT22;38621;52.830;6.914;2022-07-17T03:46:27;7.80;99.90
52725;DHT22;38621;52.830;6.914;2022-07-17T03:48:53;7.70;99.90
52725;DHT22;38621;52.830;6.914;2022-07-17T03:51:18;7.70;99.90
52725;DHT22;38621;52.830;6.914;2022-07-17T03:53:44;7.70;99.90
52725;DHT22;38621;52.830;6.914;2022-07-17T03:56:10;7.70;99.90
52725;DHT22;38621;52.830;6.914;2022-07-17T03:58:36;7.70;99.90
52725;DHT22;38621;52.830;6.914;2022-07-17T04:01:02;7.70;99.90
52725;DHT22;38621;52.830;6.914;2022-07-17T04:03:28;7.70;99.90
52725;DHT22;38621;52.830;6.914;2022-07-17T04:05:53;7.80;99.90
52725;DHT22;38621;52.830;6.914;2022-07-17T04:08:19;7.90;99.90
52725;DHT22;38621;52.830;6.914;2022-07-17T04:10:45;7.70;99.90
52725;DHT22;38621;52.830;6.914;2022-07-17T04:13:11;7.70;99.90
52725;DHT22;38621;52.830;6.914;2022-07-17T04:15:37;7.60;99.90
52725;DHT22;38621;52.830;6.914;2022-07-17T04:18:31;7.60;99.90
52725;DHT22;38621;52.830;6.914;2022-07-17T04:21:08;7.50;99.90
52725;DHT22;38621;52.830;6.914;2022-07-17T04:23:35;7.60;99.90
52725;DHT22;38621;52.830;6.914;2022-07-17T04:26:01;7.60;99.90
52725;DHT22;38621;52.830;6.914;2022-07-17T04:28:27;7.70;99.90
52725;DHT22;38621;52.830;6.914;2022-07-17T04:30:53;7.70;99.90
52725;DHT22;38621;52.830;6.914;2022-07-17T04:33:18;7.90;99.90
52725;DHT22;38621;52.830;6.914;2022-07-17T04:35:44;7.90;99.90
52725;DHT22;38621;52.830;6.914;2022-07-17T04:38:10;7.90;99.90
52725;DHT22;38621;52.830;6.914;2022-07-17T04:40:37;8.00;99.90
52725;DHT22;38621;52.830;6.914;2022-07-17T04:43:04;8.20;99.90
52725;DHT22;38621;52.830;6.914;2022-07-17T04:45:30;8.20;99.90
52725;DHT22;38621;52.830;6.914;2022-07-17T04:47:56;8.30;99.90
52725;DHT22;38621;52.830;6.914;2022-07-17T04:50:22;8.50;99.90
52725;DHT22;38621;52.830;6.914;2022-07-17T04:52:48;8.90;99.90
52725;DHT22;38621;52.830;6.914;2022-07-17T04:55:14;8.80;99.90
52725;DHT22;38621;52.830;6.914;2022-07-17T04:57:39;9.00;99.90
52725;DHT22;38621;52.830;6.914;2022-07-17T05:00:07;9.10;99.90
52725;DHT22;38621;52.830;6.914;2022-07-17T05:02:33;9.30;99.90
52725;DHT22;38621;52.830;6.914;2022-07-17T05:05:00;9.80;99.90
52725;DHT22;38621;52.830;6.914;2022-07-17T05:07:26;9.50;99.90
52725;DHT22;38621;52.830;6.914;2022-07-17T05:09:52;9.60;99.90
52725;DHT22;38621;52.830;6.914;2022-07-17T05:12:17;9.70;99.90
52725;DHT22;38621;52.830;6.914;2022-07-17T05:14:43;9.70;99.90
52725;DHT22;38621;52.830;6.914;2022-07-17T05:17:09;9.80;99.90
52725;DHT22;38621;52.830;6.914;2022-07-17T05:19:35;9.90;99.90
52725;DHT22;38621;52.830;6.914;2022-07-17T05:22:04;10.00;99.90
52725;DHT22;38621;52.830;6.914;2022-07-17T05:24:30;10.20;99.90
52725;DHT22;38621;52.830;6.914;2022-07-17T05:26:56;10.30;99.90
52725;DHT22;38621;52.830;6.914;2022-07-17T05:29:22;10.50;99.90
52725;DHT22;38621;52.830;6.914;2022-07-17T05:31:48;10.60;99.90
52725;DHT22;38621;52.830;6.914;2022-07-17T05:34:14;10.70;99.90
52725;DHT22;38621;52.830;6.914;2022-07-17T05:36:39;10.80;99.90
52725;DHT22;38621;52.830;6.914;2022-07-17T05:39:05;11.00;99.90
52725;DHT22;38621;52.830;6.914;2022-07-17T05:41:31;11.10;99.90
52725;DHT22;38621;52.830;6.914;2022-07-17T05:43:56;11.20;99.90
52725;DHT22;38621;52.830;6.914;2022-07-17T05:46:22;11.30;99.90
52725;DHT22;38621;52.830;6.914;2022-07-17T05:48:48;11.50;99.90
52725;DHT22;38621;52.830;6.914;2022-07-17T05:51:13;11.60;99.90
52725;DHT22;38621;52.830;6.914;2022-07-17T05:53:39;11.70;99.90
52725;DHT22;38621;52.830;6.914;2022-07-17T05:56:05;11.80;99.90
52725;DHT22;38621;52.830;6.914;2022-07-17T05:58:31;11.90;99.90
52725;DHT22;38621;52.830;6.914;2022-07-17T06:00:57;12.00;99.90
52725;DHT22;38621;52.830;6.914;2022-07-17T06:03:22;12.10;99.90
52725;DHT22;38621;52.830;6.914;2022-07-17T06:05:48;12.20;99.90
52725;DHT22;38621;52.830;6.914;2022-07-17T06:08:14;12.30;99.90
52725;DHT22;38621;52.830;6.914;2022-07-17T06:10:39;12.40;99.90
52725;DHT22;38621;52.830;6.914;2022-07-17T06:13:05;12.40;99.90
52725;DHT22;38621;52.830;6.914;2022-07-17T06:15:31;12.50;99.90
52725;DHT22;38621;52.830;6.914;2022-07-17T06:18:01;12.50;99.90
52725;DHT22;38621;52.830;6.914;2022-07-17T06:20:27;12.60;99.90
52725;DHT22;38621;52.830;6.914;2022-07-17T06:22:53;12.70;99.90
52725;DHT22;38621;52.830;6.914;2022-07-17T06:25:18;12.70;99.90
52725;DHT22;38621;52.830;6.914;2022-07-17T06:27:44;12.70;99.90
52725;DHT22;38621;52.830;6.914;2022-07-17T06:30:11;12.80;99.90
52725;DHT22;38621;52.830;6.914;2022-07-17T06:32:37;12.90;99.90
52725;DHT22;38621;52.830;6.914;2022-07-17T06:35:03;12.90;99.90
52725;DHT22;38621;52.830;6.914;2022-07-17T06:37:29;13.10;99.90
52725;DHT22;38621;52.830;6.914;2022-07-17T06:39:55;13.30;99.90
52725;DHT22;38621;52.830;6.914;2022-07-17T06:42:21;13.50;99.90
52725;DHT22;38621;52.830;6.914;2022-07-17T06:44:47;13.60;99.90
52725;DHT22;38621;52.830;6.914;2022-07-17T06:47:13;13.80;99.90
52725;DHT22;38621;52.830;6.914;2022-07-17T06:49:38;14.00;99.90
52725;DHT22;38621;52.830;6.914;2022-07-17T06:52:04;14.10;99.90
52725;DHT22;38621;52.830;6.914;2022-07-17T06:54:31;14.30;99.90
52725;DHT22;38621;52.830;6.914;2022-07-17T06:56:57;14.40;99.90
52725;DHT22;38621;52.830;6.914;2022-07-17T06:59:22;14.50;99.90
52725;DHT22;38621;52.830;6.914;2022-07-17T07:01:48;14.70;99.90
52725;DHT22;38621;52.830;6.914;2022-07-17T07:04:14;14.80;99.90
52725;DHT22;38621;52.830;6.914;2022-07-17T07:06:40;14.90;99.90
52725;DHT22;38621;52.830;6.914;2022-07-17T07:09:05;15.00;99.90
52725;DHT22;38621;52.830;6.914;2022-07-17T07:11:31;15.10;99.90
52725;DHT22;38621;52.830;6.914;2022-07-17T07:13:57;15.30;99.90
52725;DHT22;38621;52.830;6.914;2022-07-17T07:16:23;15.40;99.90
52725;DHT22;38621;52.830;6.914;2022-07-17T07:18:48;15.50;99.90
52725;DHT22;38621;52.830;6.914;2022-07-17T07:21:14;15.60;99.90
52725;DHT22;38621;52.830;6.914;2022-07-17T07:23:40;15.70;99.90
52725;DHT22;38621;52.830;6.914;2022-07-17T07:26:06;15.80;99.90
52725;DHT22;38621;52.830;6.914;2022-07-17T07:28:31;15.90;99.90
52725;DHT22;38621;52.830;6.914;2022-07-17T07:30:58;16.10;99.90
52725;DHT22;38621;52.830;6.914;2022-07-17T07:33:24;16.10;99.90
52725;DHT22;38621;52.830;6.914;2022-07-17T07:35:50;16.10;99.90
52725;DHT22;38621;52.830;6.914;2022-07-17T07:38:17;16.10;99.90
52725;DHT22;38621;52.830;6.914;2022-07-17T07:40:42;16.10;99.90
52725;DHT22;38621;52.830;6.914;2022-07-17T07:43:08;16.10;99.90
52725;DHT22;38621;52.830;6.914;2022-07-17T07:45:34;16.10;99.90
52725;DHT22;38621;52.830;6.914;2022-07-17T07:48:00;16.10;99.90
52725;DHT22;38621;52.830;6.914;2022-07-17T07:50:26;16.10;99.90
52725;DHT22;38621;52.830;6.914;2022-07-17T07:52:52;16.10;99.90
52725;DHT22;38621;52.830;6.914;2022-07-17T07:55:18;16.20;99.90
52725;DHT22;38621;52.830;6.914;2022-07-17T07:57:44;16.30;99.90
52725;DHT22;38621;52.830;6.914;2022-07-17T08:00:11;16.20;99.90
52725;DHT22;38621;52.830;6.914;2022-07-17T08:02:37;16.20;99.90
52725;DHT22;38621;52.830;6.914;2022-07-17T08:05:04;16.30;99.90
52725;DHT22;38621;52.830;6.914;2022-07-17T08:07:30;16.40;99.90
52725;DHT22;38621;52.830;6.914;2022-07-17T08:09:57;16.50;99.90
52725;DHT22;38621;52.830;6.914;2022-07-17T08:12:23;16.60;99.90
52725;DHT22;38621;52.830;6.914;2022-07-17T08:14:50;16.60;99.90
52725;DHT22;38621;52.830;6.914;2022-07-17T08:17:15;16.70;99.90
52725;DHT22;38621;52.830;6.914;2022-07-17T08:19:41;16.80;99.90
52725;DHT22;38621;52.830;6.914;2022-07-17T08:22:07;16.80;99.90
52725;DHT22;38621;52.830;6.914;2022-07-17T08:24:32;16.80;99.90
52725;DHT22;38621;52.830;6.914;2022-07-17T08:26:58;16.80;99.90
52725;DHT22;38621;52.830;6.914;2022-07-17T08:29:24;16.80;99.90
52725;DHT22;38621;52.830;6.914;2022-07-17T08:31:49;16.80;99.90
52725;DHT22;38621;52.830;6.914;2022-07-17T08:34:15;16.80;99.90
52725;DHT22;38621;52.830;6.914;2022-07-17T08:36:41;16.80;99.90
52725;DHT22;38621;52.830;6.914;2022-07-17T08:39:08;16.90;99.90
52725;DHT22;38621;52.830;6.914;2022-07-17T08:41:37;17.00;99.90
52725;DHT22;38621;52.830;6.914;2022-07-17T08:44:08;17.00;99.90
52725;DHT22;38621;52.830;6.914;2022-07-17T08:46:38;17.10;99.90
52725;DHT22;38621;52.830;6.914;2022-07-17T08:49:05;17.20;99.90
52725;DHT22;38621;52.830;6.914;2022-07-17T08:51:32;17.30;99.90
52725;DHT22;38621;52.830;6.914;2022-07-17T08:53:58;17.30;99.90
52725;DHT22;38621;52.830;6.914;2022-07-17T08:56:25;17.40;99.90
52725;DHT22;38621;52.830;6.914;2022-07-17T08:58:51;17.50;99.90
52725;DHT22;38621;52.830;6.914;2022-07-17T09:01:18;17.50;99.90
52725;DHT22;38621;52.830;6.914;2022-07-17T09:03:58;17.70;99.90
52725;DHT22;38621;52.830;6.914;2022-07-17T09:06:26;17.80;99.90
52725;DHT22;38621;52.830;6.914;2022-07-17T09:09:10;17.90;99.90
52725;DHT22;38621;52.830;6.914;2022-07-17T09:11:50;18.10;99.90
52725;DHT22;38621;52.830;6.914;2022-07-17T09:14:18;18.10;99.90
52725;DHT22;38621;52.830;6.914;2022-07-17T09:16:55;18.10;99.90
52725;DHT22;38621;52.830;6.914;2022-07-17T09:19:45;18.20;99.90
52725;DHT22;38621;52.830;6.914;2022-07-17T09:22:18;18.20;99.90
52725;DHT22;38621;52.830;6.914;2022-07-17T09:24:55;18.30;99.90
52725;DHT22;38621;52.830;6.914;2022-07-17T09:32:25;18.60;99.90
52725;DHT22;38621;52.830;6.914;2022-07-17T09:34:53;18.60;99.90
52725;DHT22;38621;52.830;6.914;2022-07-17T09:37:22;18.70;99.90
52725;DHT22;38621;52.830;6.914;2022-07-17T09:39:48;18.70;99.90
52725;DHT22;38621;52.830;6.914;2022-07-17T09:42:28;18.70;99.90
52725;DHT22;38621;52.830;6.914;2022-07-17T09:44:59;18.70;99.90
52725;DHT22;38621;52.830;6.914;2022-07-17T09:47:25;18.60;99.90
52725;DHT22;38621;52.830;6.914;2022-07-17T09:49:56;18.60;99.90
52725;DHT22;38621;52.830;6.914;2022-07-17T09:52:24;18.70;99.90
52725;DHT22;38621;52.830;6.914;2022-07-17T09:54:52;18.80;99.90
52725;DHT22;38621;52.830;6.914;2022-07-17T09:57:19;18.90;99.90
52725;DHT22;38621;52.830;6.914;2022-07-17T09:59:46;18.90;99.90
52725;DHT22;38621;52.830;6.914;2022-07-17T10:02:12;18.90;99.90
52725;DHT22;38621;52.830;6.914;2022-07-17T10:04:40;19.00;99.90
52725;DHT22;38621;52.830;6.914;2022-07-17T10:07:05;19.00;99.90
52725;DHT22;38621;52.830;6.914;2022-07-17T10:09:34;19.00;99.90
52725;DHT22;38621;52.830;6.914;2022-07-17T10:12:01;19.00;99.90
52725;DHT22;38621;52.830;6.914;2022-07-17T10:14:27;19.00;99.90
52725;DHT22;38621;52.830;6.914;2022-07-17T10:16:53;19.10;99.90
52725;DHT22;38621;52.830;6.914;2022-07-17T10:19:21;19.20;99.90
52725;DHT22;38621;52.830;6.914;2022-07-17T10:21:59;19.30;99.90
52725;DHT22;38621;52.830;6.914;2022-07-17T10:24:27;19.30;99.90
52725;DHT22;38621;52.830;6.914;2022-07-17T10:26:53;19.40;99.90
52725;DHT22;38621;52.830;6.914;2022-07-17T10:31:58;19.60;99.90
52725;DHT22;38621;52.830;6.914;2022-07-17T10:34:46;19.60;99.90
52725;DHT22;38621;52.830;6.914;2022-07-17T10:37:26;19.70;99.90
52725;DHT22;38621;52.830;6.914;2022-07-17T10:42:56;19.70;99.90
52725;DHT22;38621;52.830;6.914;2022-07-17T10:48:35;19.70;99.90
52725;DHT22;38621;52.830;6.914;2022-07-17T10:53:11;19.70;99.90
52725;DHT22;38621;52.830;6.914;2022-07-17T10:55:41;19.80;99.90
52725;DHT22;38621;52.830;6.914;2022-07-17T10:58:25;19.90;99.90
52725;DHT22;38621;52.830;6.914;2022-07-17T11:01:00;19.90;99.90
52725;DHT22;38621;52.830;6.914;2022-07-17T11:03:26;20.00;99.90
52725;DHT22;38621;52.830;6.914;2022-07-17T11:05:52;20.00;99.90
52725;DHT22;38621;52.830;6.914;2022-07-17T11:08:18;20.10;99.90
52725;DHT22;38621;52.830;6.914;2022-07-17T11:10:45;20.20;99.90
52725;DHT22;38621;52.830;6.914;2022-07-17T11:13:14;20.30;99.90
52725;DHT22;38621;52.830;6.914;2022-07-17T11:15:42;20.30;99.90
52725;DHT22;38621;52.830;6.914;2022-07-17T11:18:11;20.30;99.90
52725;DHT22;38621;52.830;6.914;2022-07-17T11:23:13;20.30;99.90
52725;DHT22;38621;52.830;6.914;2022-07-17T11:25:38;20.40;99.90
52725;DHT22;38621;52.830;6.914;2022-07-17T11:28:04;20.40;99.90
52725;DHT22;38621;52.830;6.914;2022-07-17T11:30:30;20.50;99.90
52725;DHT22;38621;52.830;6.914;2022-07-17T11:32:56;20.50;99.90
52725;DHT22;38621;52.830;6.914;2022-07-17T11:35:23;20.50;99.90
52725;DHT22;38621;52.830;6.914;2022-07-17T11:37:49;20.50;99.90
52725;DHT22;38621;52.830;6.914;2022-07-17T11:40:16;20.60;99.90
52725;DHT22;38621;52.830;6.914;2022-07-17T11:42:42;20.50;99.90
52725;DHT22;38621;52.830;6.914;2022-07-17T11:45:09;20.40;99.90
52725;DHT22;38621;52.830;6.914;2022-07-17T11:47:35;20.40;99.90
52725;DHT22;38621;52.830;6.914;2022-07-17T11:52:46;20.60;99.90
52725;DHT22;38621;52.830;6.914;2022-07-17T11:55:14;20.60;99.90
52725;DHT22;38621;52.830;6.914;2022-07-17T11:57:48;20.60;99.90
52725;DHT22;38621;52.830;6.914;2022-07-17T12:00:17;20.60;99.90
52725;DHT22;38621;52.830;6.914;2022-07-17T12:02:43;20.60;99.90
52725;DHT22;38621;52.830;6.914;2022-07-17T12:05:09;20.80;99.90
52725;DHT22;38621;52.830;6.914;2022-07-17T12:07:46;20.80;99.90
52725;DHT22;38621;52.830;6.914;2022-07-17T12:10:13;20.90;99.90
52725;DHT22;38621;52.830;6.914;2022-07-17T12:12:39;21.00;99.90
52725;DHT22;38621;52.830;6.914;2022-07-17T12:15:06;21.00;99.90
52725;DHT22;38621;52.830;6.914;2022-07-17T12:17:39;21.10;99.90
52725;DHT22;38621;52.830;6.914;2022-07-17T12:20:07;21.10;99.90
52725;DHT22;38621;52.830;6.914;2022-07-17T12:22:47;21.10;99.90
52725;DHT22;38621;52.830;6.914;2022-07-17T12:25:27;21.10;99.90
52725;DHT22;38621;52.830;6.914;2022-07-17T12:27:53;21.10;99.90
52725;DHT22;38621;52.830;6.914;2022-07-17T12:30:20;21.10;99.90
52725;DHT22;38621;52.830;6.914;2022-07-17T12:32:46;21.20;99.90
52725;DHT22;38621;52.830;6.914;2022-07-17T12:35:13;21.20;99.90
52725;DHT22;38621;52.830;6.914;2022-07-17T12:37:40;21.30;99.90
52725;DHT22;38621;52.830;6.914;2022-07-17T12:40:07;21.30;99.90
52725;DHT22;38621;52.830;6.914;2022-07-17T12:42:32;21.30;99.90
52725;DHT22;38621;52.830;6.914;2022-07-17T12:44:58;21.30;99.90
52725;DHT22;38621;52.830;6.914;2022-07-17T12:47:24;21.30;99.90
52725;DHT22;38621;52.830;6.914;2022-07-17T12:49:49;21.30;99.90
52725;DHT22;38621;52.830;6.914;2022-07-17T12:52:15;21.40;99.90
52725;DHT22;38621;52.830;6.914;2022-07-17T12:54:41;21.40;99.90
52725;DHT22;38621;52.830;6.914;2022-07-17T12:57:07;21.40;99.90
52725;DHT22;38621;52.830;6.914;2022-07-17T12:59:33;21.50;99.90
52725;DHT22;38621;52.830;6.914;2022-07-17T13:01:59;21.40;99.90
52725;DHT22;38621;52.830;6.914;2022-07-17T13:04:25;21.50;99.90
52725;DHT22;38621;52.830;6.914;2022-07-17T13:06:51;21.60;99.90
52725;DHT22;38621;52.830;6.914;2022-07-17T13:09:17;21.60;99.90
52725;DHT22;38621;52.830;6.914;2022-07-17T13:11:43;21.60;99.90
52725;DHT22;38621;52.830;6.914;2022-07-17T13:14:10;21.50;99.90
52725;DHT22;38621;52.830;6.914;2022-07-17T13:16:41;21.60;99.90
52725;DHT22;38621;52.830;6.914;2022-07-17T13:19:07;21.70;99.90
52725;DHT22;38621;52.830;6.914;2022-07-17T13:21:33;21.70;99.90
52725;DHT22;38621;52.830;6.914;2022-07-17T13:24:00;21.70;99.90
52725;DHT22;38621;52.830;6.914;2022-07-17T13:26:26;21.70;99.90
52725;DHT22;38621;52.830;6.914;2022-07-17T13:28:51;21.80;99.90
52725;DHT22;38621;52.830;6.914;2022-07-17T13:31:17;21.90;99.90
52725;DHT22;38621;52.830;6.914;2022-07-17T13:33:43;21.90;99.90
52725;DHT22;38621;52.830;6.914;2022-07-17T13:36:08;22.00;99.90
52725;DHT22;38621;52.830;6.914;2022-07-17T13:38:34;22.00;99.90
52725;DHT22;38621;52.830;6.914;2022-07-17T13:41:00;22.00;99.90
52725;DHT22;38621;52.830;6.914;2022-07-17T13:43:26;22.00;99.90
52725;DHT22;38621;52.830;6.914;2022-07-17T13:45:52;22.00;99.90
52725;DHT22;38621;52.830;6.914;2022-07-17T13:48:18;22.10;99.90
52725;DHT22;38621;52.830;6.914;2022-07-17T13:50:43;22.10;99.90
52725;DHT22;38621;52.830;6.914;2022-07-17T13:53:10;22.20;99.90
52725;DHT22;38621;52.830;6.914;2022-07-17T13:55:37;22.20;99.90
52725;DHT22;38621;52.830;6.914;2022-07-17T13:58:03;22.20;99.90
52725;DHT22;38621;52.830;6.914;2022-07-17T14:00:29;22.10;99.90
52725;DHT22;38621;52.830;6.914;2022-07-17T14:02:55;22.10;99.90
52725;DHT22;38621;52.830;6.914;2022-07-17T14:05:21;22.20;99.90
52725;DHT22;38621;52.830;6.914;2022-07-17T14:07:47;22.30;99.90
52725;DHT22;38621;52.830;6.914;2022-07-17T14:10:13;22.40;99.90
52725;DHT22;38621;52.830;6.914;2022-07-17T14:12:39;22.50;99.90
52725;DHT22;38621;52.830;6.914;2022-07-17T14:15:05;22.60;99.90
52725;DHT22;38621;52.830;6.914;2022-07-17T14:17:32;22.60;99.90
52725;DHT22;38621;52.830;6.914;2022-07-17T14:19:58;22.60;99.90
52725;DHT22;38621;52.830;6.914;2022-07-17T14:22:24;22.60;99.90
52725;DHT22;38621;52.830;6.914;2022-07-17T14:24:50;22.60;99.90
52725;DHT22;38621;52.830;6.914;2022-07-17T14:27:15;22.60;99.90
52725;DHT22;38621;52.830;6.914;2022-07-17T14:29:41;22.70;99.90
52725;DHT22;38621;52.830;6.914;2022-07-17T14:32:07;22.70;99.90
52725;DHT22;38621;52.830;6.914;2022-07-17T14:34:32;22.60;99.90
52725;DHT22;38621;52.830;6.914;2022-07-17T14:36:58;22.70;99.90
52725;DHT22;38621;52.830;6.914;2022-07-17T14:39:24;22.70;99.90
52725;DHT22;38621;52.830;6.914;2022-07-17T14:41:51;22.70;99.90
52725;DHT22;38621;52.830;6.914;2022-07-17T14:44:17;22.70;99.90
52725;DHT22;38621;52.830;6.914;2022-07-17T14:46:43;22.80;99.90
52725;DHT22;38621;52.830;6.914;2022-07-17T14:49:08;22.80;99.90
52725;DHT22;38621;52.830;6.914;2022-07-17T14:51:34;22.90;99.90
52725;DHT22;38621;52.830;6.914;2022-07-17T14:54:00;22.90;99.90
52725;DHT22;38621;52.830;6.914;2022-07-17T14:56:25;22.90;99.90
52725;DHT22;38621;52.830;6.914;2022-07-17T14:58:51;22.90;99.90
52725;DHT22;38621;52.830;6.914;2022-07-17T15:01:17;22.90;99.90
52725;DHT22;38621;52.830;6.914;2022-07-17T15:03:42;22.90;99.90
52725;DHT22;38621;52.830;6.914;2022-07-17T15:06:08;23.00;99.90
52725;DHT22;38621;52.830;6.914;2022-07-17T15:08:34;23.00;99.90
52725;DHT22;38621;52.830;6.914;2022-07-17T15:11:01;23.00;99.90
52725;DHT22;38621;52.830;6.914;2022-07-17T15:13:27;23.00;99.90
52725;DHT22;38621;52.830;6.914;2022-07-17T15:15:53;23.00;99.90
52725;DHT22;38621;52.830;6.914;2022-07-17T15:18:18;23.00;99.90
52725;DHT22;38621;52.830;6.914;2022-07-17T15:20:44;23.00;99.90
52725;DHT22;38621;52.830;6.914;2022-07-17T15:23:10;23.00;99.90
52725;DHT22;38621;52.830;6.914;2022-07-17T15:25:36;23.10;99.90
52725;DHT22;38621;52.830;6.914;2022-07-17T15:28:01;23.00;99.90
52725;DHT22;38621;52.830;6.914;2022-07-17T15:30:27;23.10;99.90
52725;DHT22;38621;52.830;6.914;2022-07-17T15:32:53;23.20;99.90
52725;DHT22;38621;52.830;6.914;2022-07-17T15:35:18;23.30;99.90
52725;DHT22;38621;52.830;6.914;2022-07-17T15:37:44;23.30;99.90
52725;DHT22;38621;52.830;6.914;2022-07-17T15:40:10;23.40;99.90
52725;DHT22;38621;52.830;6.914;2022-07-17T15:42:36;23.40;99.90
52725;DHT22;38621;52.830;6.914;2022-07-17T15:45:01;23.40;99.90
52725;DHT22;38621;52.830;6.914;2022-07-17T15:47:28;23.40;99.90
52725;DHT22;38621;52.830;6.914;2022-07-17T15:49:55;23.40;99.90
52725;DHT22;38621;52.830;6.914;2022-07-17T15:52:21;23.40;99.90
52725;DHT22;38621;52.830;6.914;2022-07-17T15:54:46;23.40;99.90